Terminal Aerodrome Forecast
Issued by NWS Caribou, ME

Home | Current Version | Previous Version | Text Only | Print | Product List | Glossary On
Versions: 1 2 3 4 5 6 7 8 9 10 11 12 13 14 15 16 17
015
FTUS41 KCAR 241720
TAFCAR
TAF
KCAR 241720Z 2418/2518 31012G21KT P6SM BKN050
     FM242200 31009KT P6SM BKN050
     FM250200 31005KT P6SM BKN060
     FM251300 31010G19KT P6SM BKN030
     FM251530 33012G22KT P6SM BKN040=

USA.gov is the U.S. government's official web portal to all federal, state and local government web resources and services.